Pentress, West Virginia
Current Conditions -  °F | °C
As of 8:53 AM on Saturday 22 Nov 2014 (Local Time) from KMGW Reporting Station
Overcast Overcast  
Wind Chill: 24°   Ceiling: 4400
Heat Index: 24°   Visibility: 10mi
Dew Point: 14°   Wind: 3mph
Humidity: 65%   Direction: 170°S
Pressure: 30.35"   Gusts: NA
Location:  39.71°N, 80.16°W
Report Text: KMGW 221353Z 17003KT 10SM OVC044 M04/M10 A3035 RMK AO2 SLP296 T10441100
Loading
Personal Weather Stations






























Interactive Weather Map New forecast layout! Learn more

10-Day Weather Forecast

Advertisements
Track Severe Weather on mobile